createdAt,value
2022-12-31T00:00:08.977Z,81.22
2022-12-31T00:02:36.338Z,84.85
2022-12-31T00:05:04.560Z,76.82
2022-12-31T00:09:57.627Z,75.25
2022-12-31T00:12:25.525Z,71.97
2022-12-31T00:14:52.198Z,70.60
2022-12-31T00:17:19.052Z,81.78
2022-12-31T00:19:45.677Z,71.47
2022-12-31T00:22:12.354Z,84.07
2022-12-31T00:24:39.023Z,77.35
2022-12-31T00:27:05.654Z,91.07
2022-12-31T00:29:32.286Z,103.03
2022-12-31T00:31:58.969Z,108.38
2022-12-31T00:34:25.680Z,116.65
2022-12-31T00:36:53.221Z,132.30
2022-12-31T00:39:20.007Z,120.28
2022-12-31T00:41:46.863Z,127.30
2022-12-31T00:44:14.151Z,123.60
2022-12-31T00:49:07.151Z,144.45
2022-12-31T00:51:33.837Z,154.32
2022-12-31T00:54:00.572Z,143.38
2022-12-31T00:56:29.500Z,136.63
2022-12-31T00:58:56.577Z,125.28
2022-12-31T01:01:27.946Z,124.05
2022-12-31T01:03:58.609Z,135.20
2022-12-31T01:06:25.307Z,126.72
2022-12-31T01:08:53.726Z,126.25
2022-12-31T01:11:22.301Z,129.57
2022-12-31T01:14:00.198Z,140.10
2022-12-31T01:16:32.804Z,138.30
2022-12-31T01:19:01.391Z,137.85
2022-12-31T01:21:28.646Z,129.52
2022-12-31T01:23:55.348Z,133.95
2022-12-31T01:26:22.073Z,146.55
2022-12-31T01:28:48.849Z,144.38
2022-12-31T01:31:17.808Z,139.52
2022-12-31T01:33:45.533Z,135.55
2022-12-31T01:36:25.068Z,114.80
2022-12-31T01:38:53.030Z,123.28
2022-12-31T01:41:23.278Z,118.40
2022-12-31T01:43:54.801Z,116.13
2022-12-31T01:46:33.996Z,119.40
2022-12-31T01:49:09.441Z,127.15
2022-12-31T01:51:37.649Z,130.15
2022-12-31T01:54:09.343Z,124.65
2022-12-31T01:56:39.324Z,122.10
2022-12-31T01:59:09.963Z,112.70
2022-12-31T02:01:38.546Z,119.22
2022-12-31T02:04:11.921Z,107.80
2022-12-31T02:06:46.919Z,108.28
2022-12-31T02:09:13.971Z,119.85
2022-12-31T02:11:40.731Z,117.22
2022-12-31T02:14:18.714Z,111.93
2022-12-31T02:17:10.835Z,112.72
2022-12-31T02:20:00.507Z,111.72
2022-12-31T02:22:57.944Z,118.78
2022-12-31T02:25:43.126Z,116.40
2022-12-31T02:28:28.295Z,120.93
2022-12-31T02:31:07.555Z,109.22
2022-12-31T02:33:41.701Z,112.05
2022-12-31T02:36:19.821Z,112.47
2022-12-31T02:38:48.678Z,113.80
2022-12-31T02:41:36.795Z,107.85
2022-12-31T02:44:27.249Z,103.47
2022-12-31T02:47:09.120Z,110.68
2022-12-31T02:49:53.766Z,101.68
2022-12-31T02:52:42.237Z,102.18
2022-12-31T02:55:18.143Z,100.07
2022-12-31T02:58:06.003Z,89.43
2022-12-31T03:00:53.357Z,85.03
2022-12-31T03:03:21.589Z,96.15
2022-12-31T03:05:50.062Z,99.63
2022-12-31T03:08:24.865Z,99.93
2022-12-31T03:10:52.210Z,105.22
2022-12-31T03:13:18.816Z,109.25
2022-12-31T03:15:45.460Z,106.93
2022-12-31T03:18:15.581Z,99.35
2022-12-31T03:21:06.917Z,106.63
2022-12-31T03:23:42.815Z,102.38
2022-12-31T03:26:11.470Z,115.82
2022-12-31T03:28:41.064Z,106.30
2022-12-31T03:31:08.262Z,143.27
2022-12-31T03:33:41.089Z,143.88
2022-12-31T03:36:11.548Z,161.98
2022-12-31T03:38:38.498Z,118.00
2022-12-31T03:41:05.631Z,122.57
2022-12-31T03:43:32.321Z,140.00
2022-12-31T03:46:01.510Z,127.53
2022-12-31T03:48:28.346Z,128.02
2022-12-31T03:50:55.340Z,125.43
2022-12-31T03:53:23.251Z,129.45
2022-12-31T03:55:53.469Z,126.97
2022-12-31T03:58:20.457Z,135.88
2022-12-31T04:00:47.118Z,127.80
2022-12-31T04:03:14.211Z,116.57
2022-12-31T04:05:41.295Z,126.28
2022-12-31T04:08:07.990Z,123.50
2022-12-31T04:10:34.733Z,116.80
2022-12-31T04:13:04.433Z,106.82
2022-12-31T04:15:31.212Z,127.20
2022-12-31T04:17:58.446Z,128.18
2022-12-31T04:20:25.243Z,125.80
2022-12-31T04:22:51.871Z,136.32
2022-12-31T04:25:18.657Z,132.50
2022-12-31T04:27:45.407Z,133.38
2022-12-31T04:30:13.280Z,137.57
2022-12-31T04:32:40.160Z,136.82
2022-12-31T04:35:07.515Z,121.75
2022-12-31T04:37:34.121Z,136.00
2022-12-31T04:40:05.906Z,116.13
2022-12-31T04:42:33.831Z,121.63
2022-12-31T04:45:00.616Z,122.57
2022-12-31T04:47:27.319Z,117.80
2022-12-31T04:49:54.023Z,116.63
2022-12-31T04:52:20.800Z,113.68
2022-12-31T04:54:47.451Z,114.72
2022-12-31T04:57:14.143Z,112.57
2022-12-31T04:59:40.881Z,111.30
2022-12-31T05:02:07.653Z,116.18
2022-12-31T05:04:34.446Z,113.43
2022-12-31T05:07:01.053Z,116.57
2022-12-31T05:09:28.436Z,121.20
2022-12-31T05:11:55.132Z,109.70
2022-12-31T05:14:21.839Z,117.85
2022-12-31T05:16:48.557Z,118.18
2022-12-31T05:19:15.414Z,118.97
2022-12-31T05:21:41.992Z,122.95
2022-12-31T05:24:08.874Z,122.60
2022-12-31T05:26:35.575Z,115.80
2022-12-31T05:29:02.147Z,110.50
2022-12-31T05:31:28.764Z,116.97
2022-12-31T05:33:55.387Z,103.13
2022-12-31T05:36:21.981Z,97.38
2022-12-31T05:38:48.578Z,109.50
2022-12-31T05:41:15.269Z,110.93
2022-12-31T05:43:41.938Z,111.57
2022-12-31T05:46:08.940Z,119.40
2022-12-31T05:48:37.053Z,132.00
2022-12-31T05:51:03.761Z,129.88
2022-12-31T05:53:30.440Z,139.55
2022-12-31T05:55:57.032Z,159.30
2022-12-31T05:58:23.768Z,143.65
2022-12-31T06:00:51.869Z,137.10
2022-12-31T06:03:18.756Z,127.05
2022-12-31T06:05:45.464Z,106.32
2022-12-31T06:08:12.275Z,120.47
2022-12-31T06:10:39.783Z,114.28
2022-12-31T06:13:06.756Z,108.60
2022-12-31T06:15:33.615Z,125.90
2022-12-31T06:18:00.371Z,121.22
2022-12-31T06:20:27.115Z,110.15
2022-12-31T06:22:53.898Z,112.57
2022-12-31T06:25:20.651Z,94.90
2022-12-31T06:27:47.365Z,97.03
2022-12-31T06:30:14.554Z,95.53
2022-12-31T06:32:42.223Z,99.82
2022-12-31T06:35:09.320Z,89.57
2022-12-31T06:37:36.037Z,101.30
2022-12-31T06:40:03.278Z,92.97
2022-12-31T06:42:31.135Z,89.53
2022-12-31T06:44:59.196Z,97.00
2022-12-31T06:47:26.434Z,90.25
2022-12-31T06:49:53.313Z,95.85
2022-12-31T06:52:20.553Z,91.88
2022-12-31T06:54:47.679Z,73.60
2022-12-31T06:57:14.592Z,87.60
2022-12-31T06:59:41.573Z,90.47
2022-12-31T07:02:21.325Z,92.00
2022-12-31T07:05:02.394Z,103.47
2022-12-31T07:07:48.358Z,110.85
2022-12-31T07:10:29.976Z,98.90
2022-12-31T07:13:02.940Z,105.07
2022-12-31T07:15:53.959Z,95.95
2022-12-31T07:19:13.267Z,102.95
2022-12-31T07:21:41.535Z,103.18
2022-12-31T07:24:10.137Z,100.25
2022-12-31T07:26:54.287Z,89.45
2022-12-31T07:29:34.753Z,90.03
2022-12-31T07:32:19.698Z,87.53
2022-12-31T07:34:55.698Z,94.25
2022-12-31T07:37:37.712Z,92.70
2022-12-31T07:40:24.025Z,93.82
2022-12-31T07:43:15.113Z,89.18
2022-12-31T07:46:15.316Z,91.97
2022-12-31T07:48:42.139Z,104.97
2022-12-31T07:51:10.976Z,101.15
2022-12-31T07:53:38.205Z,103.28
2022-12-31T07:56:07.203Z,97.25
2022-12-31T07:59:02.658Z,84.95
2022-12-31T08:01:35.958Z,84.13
2022-12-31T08:04:09.614Z,92.47
2022-12-31T08:06:48.385Z,84.65
2022-12-31T08:09:46.113Z,90.28
2022-12-31T08:12:14.219Z,88.07
2022-12-31T08:14:47.062Z,96.90
2022-12-31T08:17:15.811Z,98.82
2022-12-31T08:19:43.149Z,107.95
2022-12-31T08:22:19.670Z,101.50
2022-12-31T08:25:13.380Z,99.88
2022-12-31T08:28:07.819Z,118.85
2022-12-31T08:30:41.725Z,110.28
2022-12-31T08:33:26.322Z,115.80
2022-12-31T08:36:17.328Z,104.43
2022-12-31T08:38:57.052Z,99.00
2022-12-31T08:41:42.712Z,103.53
2022-12-31T08:44:28.593Z,100.68
2022-12-31T08:47:40.361Z,96.55
2022-12-31T08:50:13.005Z,90.97
2022-12-31T08:52:39.742Z,94.75
2022-12-31T08:55:06.953Z,92.82
2022-12-31T08:58:06.250Z,85.68
2022-12-31T09:00:35.127Z,92.07
2022-12-31T09:03:07.730Z,86.53
2022-12-31T09:06:02.482Z,86.63
2022-12-31T09:08:44.241Z,97.53
2022-12-31T09:11:22.863Z,96.50
2022-12-31T09:14:08.453Z,100.78
2022-12-31T09:17:04.709Z,96.75
2022-12-31T09:19:31.670Z,89.38
2022-12-31T09:21:58.869Z,89.70
2022-12-31T09:24:25.969Z,87.78
2022-12-31T09:27:27.218Z,82.60
2022-12-31T09:30:13.549Z,87.95
2022-12-31T09:32:49.202Z,83.18
2022-12-31T09:35:29.864Z,74.88
2022-12-31T09:38:07.905Z,76.65
2022-12-31T09:40:54.048Z,68.50
2022-12-31T09:44:00.873Z,67.47
2022-12-31T09:46:43.424Z,64.13
2022-12-31T09:49:28.264Z,64.20
2022-12-31T09:52:38.482Z,67.20
2022-12-31T09:55:17.201Z,61.10
2022-12-31T09:58:24.940Z,68.68
2022-12-31T10:01:29.319Z,73.50
2022-12-31T10:04:17.607Z,61.42
2022-12-31T10:07:14.518Z,71.80
2022-12-31T10:10:03.716Z,76.80
2022-12-31T10:12:55.152Z,74.70
2022-12-31T10:15:33.934Z,82.82
2022-12-31T10:18:06.200Z,67.93
2022-12-31T10:23:47.591Z,73.68
2022-12-31T10:26:37.654Z,73.90
2022-12-31T10:29:25.895Z,78.28
2022-12-31T10:32:05.955Z,84.57
2022-12-31T10:34:55.435Z,77.90
2022-12-31T10:37:28.053Z,78.90
2022-12-31T10:40:21.413Z,80.88
2022-12-31T10:42:59.798Z,73.78
2022-12-31T10:45:44.797Z,73.20
2022-12-31T10:48:14.372Z,71.07
2022-12-31T10:50:59.715Z,74.93
2022-12-31T10:53:26.367Z,73.07
2022-12-31T10:55:58.977Z,70.13
2022-12-31T10:58:45.920Z,79.55
2022-12-31T11:01:33.135Z,73.43
2022-12-31T11:04:36.282Z,67.13
2022-12-31T11:07:41.443Z,73.20
2022-12-31T11:10:32.715Z,65.22
2022-12-31T11:13:22.123Z,68.88
2022-12-31T11:16:19.567Z,63.55
2022-12-31T11:19:07.062Z,62.17
2022-12-31T11:22:11.291Z,59.67
2022-12-31T11:24:47.414Z,65.30
2022-12-31T11:27:19.960Z,63.72
2022-12-31T11:29:56.041Z,57.15
2022-12-31T11:32:29.250Z,57.40
2022-12-31T11:35:25.587Z,54.60
2022-12-31T11:38:00.739Z,58.33
2022-12-31T11:40:54.341Z,55.25
2022-12-31T11:43:27.413Z,62.70
2022-12-31T11:46:16.958Z,72.22
2022-12-31T11:49:26.481Z,62.45
2022-12-31T11:52:10.695Z,55.75
2022-12-31T11:54:46.325Z,63.63
2022-12-31T11:57:21.772Z,61.03
2022-12-31T11:59:48.487Z,66.13
2022-12-31T12:02:26.770Z,60.25
2022-12-31T12:04:56.862Z,70.88
2022-12-31T12:07:24.226Z,60.00
2022-12-31T12:09:54.532Z,63.50
2022-12-31T12:12:21.751Z,60.33
2022-12-31T12:14:55.055Z,55.35
2022-12-31T12:17:33.001Z,58.45
2022-12-31T12:20:18.187Z,51.38
2022-12-31T12:22:54.378Z,50.05
2022-12-31T12:25:24.417Z,58.28
2022-12-31T12:27:52.064Z,50.90
2022-12-31T12:30:21.493Z,51.03
2022-12-31T12:33:04.867Z,48.03
2022-12-31T12:35:34.123Z,47.25
2022-12-31T12:38:06.111Z,48.50
2022-12-31T12:40:34.639Z,45.88
2022-12-31T12:43:02.746Z,45.22
2022-12-31T12:45:51.718Z,43.72
2022-12-31T12:48:41.242Z,38.00
2022-12-31T12:51:36.640Z,48.47
2022-12-31T12:54:25.661Z,43.30
2022-12-31T12:57:17.658Z,43.88
2022-12-31T12:59:57.573Z,47.90
2022-12-31T13:02:27.200Z,42.05
2022-12-31T13:05:28.386Z,34.08
2022-12-31T13:08:28.009Z,37.67
2022-12-31T13:11:33.300Z,36.30
2022-12-31T13:14:14.862Z,35.80
2022-12-31T13:17:14.344Z,38.30
2022-12-31T13:20:13.007Z,44.72
2022-12-31T13:22:52.369Z,30.23
2022-12-31T13:25:52.568Z,26.75
2022-12-31T13:28:19.867Z,26.60
2022-12-31T13:30:52.327Z,26.67
2022-12-31T13:33:27.050Z,28.08
2022-12-31T13:36:04.864Z,23.95
2022-12-31T13:38:42.129Z,22.40
2022-12-31T13:41:30.524Z,28.58
2022-12-31T13:44:08.904Z,26.60
2022-12-31T13:47:07.050Z,28.08
2022-12-31T13:49:57.774Z,23.23
2022-12-31T13:52:39.950Z,23.17
2022-12-31T13:55:24.207Z,23.60
2022-12-31T13:58:01.823Z,19.30
2022-12-31T14:00:41.022Z,23.02
2022-12-31T14:03:21.599Z,22.75
2022-12-31T14:05:48.159Z,19.13
2022-12-31T14:08:15.949Z,22.15
2022-12-31T14:10:45.679Z,24.10
2022-12-31T14:13:34.602Z,26.00
2022-12-31T14:16:01.659Z,40.80
2022-12-31T14:18:54.453Z,33.92
2022-12-31T14:21:48.710Z,23.75
2022-12-31T14:24:32.907Z,25.80
2022-12-31T14:27:05.498Z,23.77
2022-12-31T14:29:35.516Z,25.50
2022-12-31T14:32:10.031Z,26.42
2022-12-31T14:34:45.424Z,26.92
2022-12-31T14:37:17.614Z,24.42
2022-12-31T14:39:59.384Z,29.85
2022-12-31T14:42:53.259Z,28.13
2022-12-31T14:45:38.602Z,32.50
2022-12-31T14:48:21.547Z,43.90
2022-12-31T14:50:49.311Z,41.90
2022-12-31T14:53:24.966Z,54.53
2022-12-31T14:55:59.420Z,58.28
2022-12-31T14:58:35.799Z,59.78
2022-12-31T15:01:19.074Z,52.83
2022-12-31T15:03:46.496Z,65.57
2022-12-31T15:06:31.797Z,64.82
2022-12-31T15:09:08.220Z,70.85
2022-12-31T15:11:46.253Z,74.65
2022-12-31T15:14:50.592Z,69.88
2022-12-31T15:17:39.188Z,73.90
2022-12-31T15:20:27.490Z,74.60
2022-12-31T15:22:54.840Z,64.47
2022-12-31T15:25:38.424Z,71.35
2022-12-31T15:28:28.816Z,77.35
2022-12-31T15:31:02.097Z,72.80
2022-12-31T15:33:37.845Z,69.57
2022-12-31T15:36:21.373Z,75.78
2022-12-31T15:38:49.541Z,76.13
2022-12-31T15:41:19.248Z,74.10
2022-12-31T15:44:01.898Z,74.15
2022-12-31T15:46:37.104Z,70.00
2022-12-31T15:49:25.977Z,78.10
2022-12-31T15:52:08.535Z,88.82
2022-12-31T15:54:56.961Z,77.53
2022-12-31T15:57:32.947Z,82.53
2022-12-31T16:00:04.807Z,80.18
2022-12-31T16:02:31.782Z,86.60
2022-12-31T16:04:58.763Z,90.90
2022-12-31T16:07:27.442Z,77.00
2022-12-31T16:09:57.362Z,97.80
2022-12-31T16:12:32.698Z,91.88
2022-12-31T16:15:01.681Z,95.15
2022-12-31T16:17:34.065Z,107.82
2022-12-31T16:20:20.025Z,105.95
2022-12-31T16:22:56.220Z,113.55
2022-12-31T16:25:33.125Z,111.28
2022-12-31T16:28:02.645Z,82.05
2022-12-31T16:30:31.284Z,93.65
2022-12-31T16:33:04.479Z,78.60
2022-12-31T16:35:33.101Z,102.68
2022-12-31T16:38:19.211Z,75.70
2022-12-31T16:41:01.047Z,74.97
2022-12-31T16:43:37.329Z,75.25
2022-12-31T16:46:27.595Z,73.95
2022-12-31T16:48:57.050Z,70.72
2022-12-31T16:51:27.604Z,61.72
2022-12-31T16:53:54.885Z,60.65
2022-12-31T16:56:32.127Z,55.38
2022-12-31T16:59:03.818Z,61.40
2022-12-31T17:01:34.292Z,52.65
2022-12-31T17:04:10.487Z,50.22
2022-12-31T17:06:37.207Z,40.45
2022-12-31T17:09:12.843Z,47.03
2022-12-31T17:11:50.777Z,51.05
2022-12-31T17:14:20.448Z,57.78
2022-12-31T17:17:06.842Z,65.43
2022-12-31T17:19:47.537Z,64.80
2022-12-31T17:22:32.806Z,65.50
2022-12-31T17:25:06.327Z,60.55
2022-12-31T17:27:34.499Z,57.40
2022-12-31T17:30:35.682Z,56.10
2022-12-31T17:33:28.799Z,70.78
2022-12-31T17:36:15.660Z,52.40
2022-12-31T17:38:42.846Z,53.70
2022-12-31T17:41:17.253Z,49.28
2022-12-31T17:43:44.136Z,51.65
2022-12-31T17:46:16.401Z,47.00
2022-12-31T17:51:11.981Z,48.95
2022-12-31T17:53:38.653Z,61.05
2022-12-31T17:56:07.632Z,53.67
2022-12-31T17:58:54.086Z,53.55
2022-12-31T18:01:22.952Z,53.15
2022-12-31T18:03:50.310Z,51.28
2022-12-31T18:06:19.238Z,55.63
2022-12-31T18:08:46.055Z,64.07
2022-12-31T18:11:19.817Z,61.70
2022-12-31T18:13:47.229Z,82.82
2022-12-31T18:16:14.563Z,49.60
2022-12-31T18:18:42.375Z,74.13
2022-12-31T18:21:26.830Z,71.20
2022-12-31T18:26:21.746Z,105.22
2022-12-31T18:28:49.085Z,107.60
2022-12-31T18:31:24.837Z,94.00
2022-12-31T18:33:53.179Z,91.97
2022-12-31T18:36:22.519Z,95.28
2022-12-31T18:38:49.210Z,94.53
2022-12-31T18:41:23.534Z,76.55
2022-12-31T18:43:50.903Z,62.65
2022-12-31T18:46:20.021Z,61.10
2022-12-31T18:48:47.026Z,52.55
2022-12-31T18:51:31.243Z,54.90
2022-12-31T18:54:00.038Z,60.03
2022-12-31T18:56:27.634Z,48.88
2022-12-31T18:58:54.543Z,50.13
2022-12-31T19:01:27.138Z,57.63
2022-12-31T19:03:56.552Z,62.03
2022-12-31T19:06:23.679Z,59.65
2022-12-31T19:08:50.461Z,63.47
2022-12-31T19:11:17.611Z,63.45
2022-12-31T19:13:44.266Z,69.90
2022-12-31T19:16:11.513Z,74.55
2022-12-31T19:18:38.189Z,72.00
2022-12-31T19:21:05.649Z,67.57
2022-12-31T19:23:32.987Z,75.85
2022-12-31T19:25:59.613Z,69.38
2022-12-31T19:28:27.818Z,71.78
2022-12-31T19:30:54.721Z,85.80
2022-12-31T19:33:21.394Z,105.22
2022-12-31T19:35:48.354Z,83.03
2022-12-31T19:38:19.079Z,71.60
2022-12-31T19:40:46.996Z,63.35
2022-12-31T19:43:15.762Z,80.60
2022-12-31T19:45:43.793Z,58.53
2022-12-31T19:48:25.792Z,71.68
2022-12-31T19:50:57.193Z,80.07
2022-12-31T19:53:26.067Z,83.22
2022-12-31T19:55:53.613Z,91.55
2022-12-31T19:58:26.142Z,92.53
2022-12-31T20:00:58.445Z,103.22
2022-12-31T20:03:29.104Z,123.97
2022-12-31T20:06:08.196Z,107.50
2022-12-31T20:08:36.959Z,98.85
2022-12-31T20:11:15.566Z,98.65
2022-12-31T20:13:42.920Z,107.40
2022-12-31T20:16:15.740Z,108.18
2022-12-31T20:18:44.314Z,105.95
2022-12-31T20:21:13.255Z,97.15
2022-12-31T20:23:40.414Z,74.35
2022-12-31T20:26:07.075Z,78.72
2022-12-31T20:28:33.741Z,91.55
2022-12-31T20:31:14.551Z,88.97
2022-12-31T20:33:41.636Z,107.30
2022-12-31T20:36:11.581Z,88.80
2022-12-31T20:38:38.658Z,89.97
2022-12-31T20:41:10.234Z,88.28
2022-12-31T20:43:37.498Z,90.93
2022-12-31T20:46:15.547Z,87.10
2022-12-31T20:48:43.989Z,125.72
2022-12-31T20:51:11.667Z,102.32
2022-12-31T20:53:38.552Z,93.47
2022-12-31T20:56:09.559Z,108.22
2022-12-31T20:58:36.659Z,93.13
2022-12-31T21:01:07.048Z,94.55
2022-12-31T21:06:25.663Z,94.93
2022-12-31T21:08:52.558Z,93.20
2022-12-31T21:11:37.652Z,103.85
2022-12-31T21:14:04.511Z,94.10
2022-12-31T21:16:31.854Z,188.73
2022-12-31T21:18:58.795Z,207.85
2022-12-31T21:21:25.549Z,208.27
2022-12-31T21:23:52.445Z,174.13
2022-12-31T21:26:19.584Z,145.90
2022-12-31T21:28:46.394Z,136.73
2022-12-31T21:31:14.470Z,146.45
2022-12-31T21:33:45.504Z,139.38
2022-12-31T21:36:12.622Z,143.48
2022-12-31T21:38:39.682Z,149.70
2022-12-31T21:41:08.526Z,156.73
2022-12-31T21:43:35.323Z,147.95
2022-12-31T21:46:04.192Z,150.55
2022-12-31T21:48:31.351Z,140.13
2022-12-31T21:51:10.001Z,130.75
2022-12-31T21:53:37.660Z,125.53
2022-12-31T21:56:08.285Z,121.68
2022-12-31T21:58:36.485Z,124.57
2022-12-31T22:01:22.057Z,121.55
2022-12-31T22:03:48.802Z,120.47
2022-12-31T22:06:22.372Z,203.23
2022-12-31T22:08:59.390Z,156.50
2022-12-31T22:11:28.244Z,162.30
2022-12-31T22:13:55.361Z,422.48
2022-12-31T22:16:22.724Z,378.73
2022-12-31T22:18:49.871Z,218.27
2022-12-31T22:21:21.686Z,207.48
2022-12-31T22:23:50.868Z,156.82
2022-12-31T22:26:20.019Z,144.00
2022-12-31T22:28:47.143Z,286.00
2022-12-31T22:31:19.593Z,290.52
2022-12-31T22:33:47.503Z,185.77
2022-12-31T22:36:18.073Z,143.40
2022-12-31T22:38:45.512Z,156.52
2022-12-31T22:41:15.143Z,150.80
2022-12-31T22:43:44.643Z,149.13
2022-12-31T22:46:12.910Z,127.63
2022-12-31T22:48:40.543Z,116.35
2022-12-31T22:51:09.978Z,128.23
2022-12-31T22:53:38.615Z,117.00
2022-12-31T22:56:06.079Z,139.07
2022-12-31T22:58:32.862Z,161.18
2022-12-31T23:00:59.628Z,154.70
2022-12-31T23:03:26.338Z,147.93
2022-12-31T23:05:53.050Z,125.95
2022-12-31T23:08:23.355Z,116.35
2022-12-31T23:11:01.655Z,129.13
2022-12-31T23:13:50.890Z,151.65
2022-12-31T23:16:36.970Z,150.43
2022-12-31T23:19:22.577Z,174.02
2022-12-31T23:22:07.792Z,202.57
2022-12-31T23:24:34.666Z,177.68
2022-12-31T23:27:01.412Z,156.38
2022-12-31T23:29:28.212Z,166.88
2022-12-31T23:31:54.959Z,152.35
2022-12-31T23:34:21.799Z,173.40
2022-12-31T23:36:48.544Z,168.05
2022-12-31T23:39:15.485Z,178.23
2022-12-31T23:41:42.260Z,163.80
2022-12-31T23:44:11.981Z,161.77
2022-12-31T23:46:39.816Z,163.65
2022-12-31T23:49:06.892Z,168.70
2022-12-31T23:51:33.529Z,177.52
2022-12-31T23:54:00.935Z,218.30
2022-12-31T23:56:27.570Z,188.50
2022-12-31T23:58:55.714Z,240.43
